Time;durP1;ratioP1;P1;durP2;ratioP2;P2;SDS_P1;SDS_P2;PMS_P1;PMS_P2;Temp;Humidity;BMP_temperature;BMP_pressure;BME280_temperature;BME280_humidity;BME280_pressure;Samples;Min_cycle;Max_cycle;Signal;HPM_P1;HPM_P2
2022/05/31 00:01:26;;;;;;;4.70;3.10;;;;;;;;;;4961028;28;20513;-71
2022/05/31 00:03:51;;;;;;;3.25;2.70;;;;;;;;;;4966873;28;20401;-71
2022/05/31 00:06:16;;;;;;;5.03;3.05;;;;;;;;;;4957043;28;20033;-71
2022/05/31 00:08:42;;;;;;;5.63;2.80;;;;;;;;;;4964870;28;20442;-70
2022/05/31 00:11:08;;;;;;;4.03;2.70;;;;;;;;;;4959535;28;20027;-71
2022/05/31 00:13:33;;;;;;;8.73;3.28;;;;;;;;;;4962129;28;20058;-71
2022/05/31 00:15:58;;;;;;;6.13;2.55;;;;;;;;;;4978934;28;20080;-71
2022/05/31 00:18:23;;;;;;;3.42;3.08;;;;;;;;;;4983330;28;20022;-70
2022/05/31 00:20:49;;;;;;;4.80;2.97;;;;;;;;;;4981185;28;20448;-69
2022/05/31 00:23:14;;;;;;;6.28;2.92;;;;;;;;;;4980469;28;20113;-70
2022/05/31 00:25:39;;;;;;;5.75;2.90;;;;;;;;;;4978949;28;20038;-71
2022/05/31 00:28:05;;;;;;;4.38;3.00;;;;;;;;;;4965164;28;20027;-70
2022/05/31 00:30:31;;;;;;;4.05;2.70;;;;;;;;;;4981227;28;20161;-70
2022/05/31 00:32:56;;;;;;;5.05;2.80;;;;;;;;;;4984671;28;20493;-70
2022/05/31 00:35:26;;;;;;;6.38;2.70;;;;;;;;;;4979388;28;20496;-69
2022/05/31 00:37:52;;;;;;;6.20;2.97;;;;;;;;;;4981562;28;20145;-70
2022/05/31 00:40:18;;;;;;;4.28;2.95;;;;;;;;;;4956635;28;20453;-70
2022/05/31 00:42:53;;;;;;;4.07;3.03;;;;;;;;;;4965494;28;20027;-70
2022/05/31 00:45:19;;;;;;;5.40;2.63;;;;;;;;;;4973647;28;21000;-70
2022/05/31 00:47:44;;;;;;;5.93;3.35;;;;;;;;;;5005368;28;20048;-70
2022/05/31 00:50:15;;;;;;;3.35;2.85;;;;;;;;;;4984875;28;20078;-70
2022/05/31 00:52:52;;;;;;;4.20;2.60;;;;;;;;;;4984934;28;20032;-71
2022/05/31 00:55:27;;;;;;;5.20;2.88;;;;;;;;;;4999426;28;20504;-70
2022/05/31 00:57:58;;;;;;;5.18;3.10;;;;;;;;;;4987289;28;20025;-71
2022/05/31 01:00:23;;;;;;;7.88;3.25;;;;;;;;;;5001699;28;20535;-69
2022/05/31 01:02:49;;;;;;;5.07;3.22;;;;;;;;;;5002601;28;20116;-70
2022/05/31 01:05:15;;;;;;;5.95;2.97;;;;;;;;;;4982551;28;20797;-70
2022/05/31 01:07:41;;;;;;;4.50;3.00;;;;;;;;;;4967771;28;20554;-70
2022/05/31 01:10:08;;;;;;;3.50;2.85;;;;;;;;;;4982553;28;20030;-69
2022/05/31 01:12:33;;;;;;;5.88;3.25;;;;;;;;;;5001383;28;20212;-70
2022/05/31 01:14:59;;;;;;;4.63;3.40;;;;;;;;;;4984386;28;20533;-70
2022/05/31 01:17:24;;;;;;;7.90;3.53;;;;;;;;;;4983553;28;20022;-69
2022/05/31 01:19:56;;;;;;;6.13;3.35;;;;;;;;;;5003107;28;20437;-70
2022/05/31 01:22:33;;;;;;;5.55;4.28;;;;;;;;;;4999680;28;20520;-70
2022/05/31 01:25:18;;;;;;;7.88;3.80;;;;;;;;;;5000559;28;20158;-70
2022/05/31 01:27:52;;;;;;;5.57;3.58;;;;;;;;;;4984599;28;20037;-71
2022/05/31 01:30:18;;;;;;;6.05;3.65;;;;;;;;;;5001121;28;20026;-71
2022/05/31 01:32:47;;;;;;;10.30;4.28;;;;;;;;;;4968169;28;20026;-69
2022/05/31 01:35:22;;;;;;;7.78;4.55;;;;;;;;;;5000033;28;20383;-71
2022/05/31 01:38:00;;;;;;;5.55;4.45;;;;;;;;;;5002393;28;20017;-69
2022/05/31 01:40:48;;;;;;;7.38;4.40;;;;;;;;;;4999550;28;20033;-70
2022/05/31 01:43:13;;;;;;;6.28;4.63;;;;;;;;;;5002558;28;20030;-70
2022/05/31 01:45:43;;;;;;;7.32;4.75;;;;;;;;;;4981864;28;20409;-71
2022/05/31 01:48:08;;;;;;;8.80;4.95;;;;;;;;;;5003760;28;20199;-70
2022/05/31 01:50:34;;;;;;;5.80;4.90;;;;;;;;;;4982189;28;20026;-70
2022/05/31 01:53:00;;;;;;;9.00;5.80;;;;;;;;;;4983885;28;20022;-70
2022/05/31 01:55:26;;;;;;;8.40;5.63;;;;;;;;;;4980475;28;20037;-69
2022/05/31 01:57:54;;;;;;;8.50;5.32;;;;;;;;;;4969062;28;20033;-71
2022/05/31 02:00:21;;;;;;;8.73;6.10;;;;;;;;;;4984193;28;20022;-70
2022/05/31 02:02:51;;;;;;;6.68;5.85;;;;;;;;;;4984191;28;20026;-71
2022/05/31 02:05:17;;;;;;;10.50;6.20;;;;;;;;;;4981156;28;20260;-70
2022/05/31 02:07:42;;;;;;;7.43;6.25;;;;;;;;;;4999756;28;20199;-70
2022/05/31 02:10:08;;;;;;;7.45;6.57;;;;;;;;;;4998766;28;20017;-69
2022/05/31 02:12:33;;;;;;;7.80;7.00;;;;;;;;;;5001047;28;20014;-71
2022/05/31 02:14:58;;;;;;;9.82;7.05;;;;;;;;;;5003296;28;20026;-70
2022/05/31 02:17:24;;;;;;;8.77;7.20;;;;;;;;;;5001784;28;20117;-71
2022/05/31 02:19:49;;;;;;;8.48;6.75;;;;;;;;;;4969870;28;20396;-69
2022/05/31 02:22:16;;;;;;;8.93;7.00;;;;;;;;;;4999000;28;20559;-70
2022/05/31 02:24:41;;;;;;;11.45;7.95;;;;;;;;;;5000482;28;20021;-70
2022/05/31 02:27:07;;;;;;;8.82;7.85;;;;;;;;;;4998681;28;20177;-70
2022/05/31 02:29:34;;;;;;;8.75;7.38;;;;;;;;;;4982202;28;20515;-70
2022/05/31 02:32:00;;;;;;;9.45;7.93;;;;;;;;;;4982826;28;20125;-70
2022/05/31 02:34:29;;;;;;;9.88;8.20;;;;;;;;;;5001040;28;20397;-70
2022/05/31 02:36:55;;;;;;;9.63;8.02;;;;;;;;;;4980440;28;20031;-70
2022/05/31 02:39:21;;;;;;;12.20;8.15;;;;;;;;;;4984410;28;20022;-70
2022/05/31 02:41:46;;;;;;;11.43;8.10;;;;;;;;;;4979733;28;20052;-70
2022/05/31 02:44:11;;;;;;;10.45;8.50;;;;;;;;;;5001336;28;20045;-69
2022/05/31 02:46:37;;;;;;;9.65;8.02;;;;;;;;;;4981469;28;20062;-71
2022/05/31 02:49:04;;;;;;;9.35;8.05;;;;;;;;;;4985814;28;20514;-70
2022/05/31 02:51:32;;;;;;;9.20;8.30;;;;;;;;;;4983083;28;20029;-70
2022/05/31 02:53:57;;;;;;;9.45;8.45;;;;;;;;;;4987087;28;20519;-70
2022/05/31 02:56:23;;;;;;;11.20;8.90;;;;;;;;;;4984566;28;20030;-70
2022/05/31 02:58:49;;;;;;;12.18;8.70;;;;;;;;;;4971081;28;20464;-69
2022/05/31 03:01:23;;;;;;;11.30;8.55;;;;;;;;;;4986464;28;20025;-71
2022/05/31 03:03:48;;;;;;;11.70;9.80;;;;;;;;;;5004240;28;20118;-70
2022/05/31 03:06:13;;;;;;;10.82;9.38;;;;;;;;;;4986422;28;20472;-70
2022/05/31 03:08:39;;;;;;;11.85;9.98;;;;;;;;;;4968976;28;20059;-71
2022/05/31 03:11:06;;;;;;;12.57;10.00;;;;;;;;;;5002815;28;20092;-71
2022/05/31 03:13:33;;;;;;;11.50;9.68;;;;;;;;;;4983954;28;20384;-69
2022/05/31 03:16:02;;;;;;;11.45;10.27;;;;;;;;;;5005940;28;20057;-71
2022/05/31 03:18:31;;;;;;;13.25;10.13;;;;;;;;;;4988536;28;20021;-71
2022/05/31 03:20:57;;;;;;;12.60;9.98;;;;;;;;;;5003159;28;20196;-71
2022/05/31 03:23:22;;;;;;;11.52;10.07;;;;;;;;;;4986246;28;20150;-71
2022/05/31 03:25:49;;;;;;;10.43;9.30;;;;;;;;;;4981792;28;20836;-70
2022/05/31 03:28:14;;;;;;;10.68;9.32;;;;;;;;;;4970893;28;20476;-72
2022/05/31 03:30:39;;;;;;;13.82;10.75;;;;;;;;;;4985715;28;20030;-70
2022/05/31 03:33:07;;;;;;;11.88;10.10;;;;;;;;;;4969727;28;20517;-71
2022/05/31 03:35:33;;;;;;;11.80;9.57;;;;;;;;;;4983389;28;20022;-71
2022/05/31 03:37:58;;;;;;;13.70;10.25;;;;;;;;;;4998160;28;20032;-70
2022/05/31 03:43:07;;;;;;;12.20;10.63;;;;;;;;;;5003343;28;20161;-71
2022/05/31 03:45:37;;;;;;;12.52;10.95;;;;;;;;;;4981291;28;20058;-71
2022/05/31 03:48:04;;;;;;;12.30;11.07;;;;;;;;;;4982109;28;20515;-71
2022/05/31 03:50:30;;;;;;;12.95;11.65;;;;;;;;;;4983798;28;20050;-70
2022/05/31 03:52:55;;;;;;;13.70;11.00;;;;;;;;;;4975599;28;20496;-70
2022/05/31 03:55:21;;;;;;;14.57;11.60;;;;;;;;;;4983900;28;20026;-70
2022/05/31 03:57:47;;;;;;;13.05;11.75;;;;;;;;;;4982754;28;20101;-70
2022/05/31 04:00:13;;;;;;;14.15;11.98;;;;;;;;;;4985542;28;20022;-70
2022/05/31 04:02:38;;;;;;;13.82;11.20;;;;;;;;;;4981536;28;20632;-70
2022/05/31 04:05:03;;;;;;;15.02;11.80;;;;;;;;;;4966828;28;20034;-71
2022/05/31 04:07:28;;;;;;;13.55;10.73;;;;;;;;;;4942576;28;20035;-70
2022/05/31 04:09:54;;;;;;;14.05;12.27;;;;;;;;;;4970291;28;20019;-71
2022/05/31 04:12:19;;;;;;;13.18;11.20;;;;;;;;;;4978299;28;20027;-71
2022/05/31 04:14:45;;;;;;;13.38;11.93;;;;;;;;;;4985113;28;20018;-71
2022/05/31 04:17:10;;;;;;;13.10;11.80;;;;;;;;;;4981893;28;20389;-70
2022/05/31 04:19:35;;;;;;;13.18;11.77;;;;;;;;;;4981786;28;20535;-70
2022/05/31 04:22:01;;;;;;;12.68;11.25;;;;;;;;;;4978210;28;20056;-72
2022/05/31 04:24:26;;;;;;;12.93;11.57;;;;;;;;;;4969601;28;20128;-70
2022/05/31 04:26:51;;;;;;;15.15;12.48;;;;;;;;;;4981592;28;20032;-73
2022/05/31 04:29:16;;;;;;;14.32;12.27;;;;;;;;;;4985608;28;20026;-71
2022/05/31 04:31:42;;;;;;;14.65;12.23;;;;;;;;;;4980277;28;20034;-70
2022/05/31 04:34:07;;;;;;;12.02;10.80;;;;;;;;;;4976641;28;20339;-71
2022/05/31 04:36:33;;;;;;;12.65;11.32;;;;;;;;;;4945317;28;20018;-72
2022/05/31 04:38:59;;;;;;;13.25;11.85;;;;;;;;;;4963481;28;20157;-70
2022/05/31 04:41:25;;;;;;;12.20;11.00;;;;;;;;;;4962838;28;20535;-71
2022/05/31 04:43:54;;;;;;;13.25;11.55;;;;;;;;;;4963225;28;20141;-71
2022/05/31 04:46:21;;;;;;;15.20;12.25;;;;;;;;;;4977689;28;20050;-70
2022/05/31 04:48:46;;;;;;;13.18;11.80;;;;;;;;;;4983768;28;20050;-71
2022/05/31 04:51:12;;;;;;;14.25;12.05;;;;;;;;;;4981971;28;20037;-70
2022/05/31 04:53:39;;;;;;;13.30;11.90;;;;;;;;;;4963831;28;20376;-71
2022/05/31 04:56:05;;;;;;;15.02;12.68;;;;;;;;;;4961345;28;20022;-71
2022/05/31 04:58:31;;;;;;;15.15;12.73;;;;;;;;;;4964352;28;20374;-71
2022/05/31 05:00:56;;;;;;;18.05;12.88;;;;;;;;;;4964504;28;20097;-70
2022/05/31 05:03:22;;;;;;;14.57;13.05;;;;;;;;;;4964738;28;20030;-71
2022/05/31 05:05:47;;;;;;;14.77;11.85;;;;;;;;;;4965021;28;20022;-70
2022/05/31 05:08:12;;;;;;;14.38;12.65;;;;;;;;;;4957617;28;20454;-70
2022/05/31 05:10:43;;;;;;;16.13;12.90;;;;;;;;;;4959721;28;20493;-71
2022/05/31 05:13:08;;;;;;;15.50;12.82;;;;;;;;;;4963291;28;20041;-70
2022/05/31 05:15:37;;;;;;;14.27;12.70;;;;;;;;;;4964204;28;20359;-71
2022/05/31 05:18:03;;;;;;;13.57;12.20;;;;;;;;;;4962286;28;20030;-70
2022/05/31 05:20:28;;;;;;;14.07;12.57;;;;;;;;;;4981579;28;20034;-71
2022/05/31 05:22:53;;;;;;;14.05;12.55;;;;;;;;;;4952328;28;20434;-70
2022/05/31 05:25:19;;;;;;;14.30;12.88;;;;;;;;;;4960621;28;20102;-71
2022/05/31 05:27:44;;;;;;;15.70;12.45;;;;;;;;;;4963058;28;20034;-71
2022/05/31 05:32:53;;;;;;;13.23;11.23;;;;;;;;;;4961434;28;20038;-71
2022/05/31 05:35:19;;;;;;;13.10;11.80;;;;;;;;;;4963703;28;20019;-71
2022/05/31 05:37:44;;;;;;;13.25;11.90;;;;;;;;;;4956800;28;20158;-71
2022/05/31 05:40:10;;;;;;;14.20;11.98;;;;;;;;;;4960400;28;20369;-72
2022/05/31 05:42:35;;;;;;;13.45;12.05;;;;;;;;;;4963260;28;20025;-71
2022/05/31 05:45:02;;;;;;;12.02;10.68;;;;;;;;;;4953472;28;20046;-71
2022/05/31 05:47:28;;;;;;;13.77;11.05;;;;;;;;;;4987463;28;20052;-71
2022/05/31 05:49:53;;;;;;;13.48;11.32;;;;;;;;;;4985407;28;20029;-71
2022/05/31 05:52:18;;;;;;;13.77;11.52;;;;;;;;;;4965074;28;20029;-71
2022/05/31 05:54:44;;;;;;;13.13;10.25;;;;;;;;;;4984876;28;20044;-70
2022/05/31 05:57:09;;;;;;;21.73;12.05;;;;;;;;;;4965286;28;20030;-71
2022/05/31 05:59:34;;;;;;;15.40;10.70;;;;;;;;;;4971991;28;20026;-71
2022/05/31 06:02:05;;;;;;;13.70;11.65;;;;;;;;;;5001973;28;20076;-71
2022/05/31 06:04:33;;;;;;;12.82;11.43;;;;;;;;;;4986666;28;20086;-71
2022/05/31 06:07:04;;;;;;;14.88;10.90;;;;;;;;;;4997120;28;20295;-71
2022/05/31 06:09:31;;;;;;;13.80;10.85;;;;;;;;;;5005455;28;20269;-71
2022/05/31 06:12:03;;;;;;;12.40;10.48;;;;;;;;;;4981503;28;20146;-71
2022/05/31 06:14:49;;;;;;;14.20;10.57;;;;;;;;;;5005392;28;20021;-71
2022/05/31 06:17:16;;;;;;;13.27;11.65;;;;;;;;;;5002132;28;20069;-72
2022/05/31 06:19:41;;;;;;;13.70;10.68;;;;;;;;;;4986893;28;20091;-71
2022/05/31 06:22:07;;;;;;;11.13;9.93;;;;;;;;;;4999087;28;20305;-71
2022/05/31 06:24:34;;;;;;;12.00;10.40;;;;;;;;;;4983937;28;20053;-71
2022/05/31 06:26:59;;;;;;;13.98;10.80;;;;;;;;;;4976636;28;20018;-70
2022/05/31 06:29:24;;;;;;;12.65;9.68;;;;;;;;;;5001912;28;20150;-71
2022/05/31 06:31:51;;;;;;;10.80;9.80;;;;;;;;;;4997934;28;20026;-72
2022/05/31 06:34:17;;;;;;;11.10;9.07;;;;;;;;;;4964781;28;20068;-70
2022/05/31 06:36:42;;;;;;;11.60;9.52;;;;;;;;;;4998784;28;20030;-71
2022/05/31 06:39:08;;;;;;;11.57;9.75;;;;;;;;;;4998397;28;20124;-71
2022/05/31 06:41:34;;;;;;;10.52;9.50;;;;;;;;;;4981814;28;20528;-71
2022/05/31 06:43:59;;;;;;;11.02;9.15;;;;;;;;;;5000765;28;20034;-71
2022/05/31 06:46:25;;;;;;;11.20;10.02;;;;;;;;;;5001321;28;20046;-70
2022/05/31 06:48:50;;;;;;;12.98;8.95;;;;;;;;;;4998736;28;20076;-71
2022/05/31 06:56:48;;;;;;;13.07;10.05;;;;;;;;;;4983241;28;20476;-70
2022/05/31 06:56:49;;;;;;;11.13;9.88;;;;;;;;;;5000303;28;20088;-72
2022/05/31 06:59:15;;;;;;;11.57;9.50;;;;;;;;;;4981910;28;20025;-71
2022/05/31 07:01:40;;;;;;;10.10;9.13;;;;;;;;;;4999382;28;20018;-71
2022/05/31 07:04:05;;;;;;;9.93;8.70;;;;;;;;;;4979005;28;20026;-70
2022/05/31 07:06:31;;;;;;;11.02;9.57;;;;;;;;;;4985909;28;20109;-72
2022/05/31 07:08:56;;;;;;;10.82;8.05;;;;;;;;;;4996813;28;20045;-70
2022/05/31 07:11:22;;;;;;;15.93;8.43;;;;;;;;;;4997753;28;20063;-72
2022/05/31 07:13:47;;;;;;;10.35;8.85;;;;;;;;;;4984481;28;20014;-71
2022/05/31 07:16:13;;;;;;;10.40;8.93;;;;;;;;;;4999604;28;20861;-70
2022/05/31 07:18:38;;;;;;;8.70;7.80;;;;;;;;;;5000923;28;20425;-71
2022/05/31 07:21:04;;;;;;;11.23;8.65;;;;;;;;;;4982662;28;20032;-70
2022/05/31 07:23:29;;;;;;;9.82;7.88;;;;;;;;;;4981030;28;20025;-71
2022/05/31 07:25:54;;;;;;;9.98;7.13;;;;;;;;;;4964498;28;20037;-70
2022/05/31 07:28:19;;;;;;;8.25;6.97;;;;;;;;;;4965874;28;20038;-71
2022/05/31 07:30:45;;;;;;;11.90;7.50;;;;;;;;;;4982633;28;20029;-71
2022/05/31 07:33:12;;;;;;;7.75;6.95;;;;;;;;;;4997140;28;20490;-71
2022/05/31 07:35:40;;;;;;;9.85;8.13;;;;;;;;;;5001157;28;20024;-70
2022/05/31 07:38:05;;;;;;;9.77;7.72;;;;;;;;;;4978339;28;20108;-71
2022/05/31 07:40:31;;;;;;;10.23;7.78;;;;;;;;;;5003424;28;20109;-71
2022/05/31 07:42:56;;;;;;;9.13;6.57;;;;;;;;;;5003875;28;20080;-70
2022/05/31 07:45:23;;;;;;;10.00;5.50;;;;;;;;;;4985325;28;20113;-69
2022/05/31 07:47:48;;;;;;;7.05;5.85;;;;;;;;;;5004728;28;20021;-72
2022/05/31 07:50:14;;;;;;;8.48;5.43;;;;;;;;;;5002900;28;20744;-71
2022/05/31 07:52:39;;;;;;;9.10;6.20;;;;;;;;;;4983146;28;20878;-70
2022/05/31 07:55:05;;;;;;;10.02;5.43;;;;;;;;;;4999311;28;20029;-71
2022/05/31 08:00:14;;;;;;;7.68;4.85;;;;;;;;;;4987053;28;20566;-70
2022/05/31 08:02:40;;;;;;;9.02;5.82;;;;;;;;;;4986710;28;20026;-71
2022/05/31 08:05:06;;;;;;;5.88;4.65;;;;;;;;;;5003709;28;20084;-70
2022/05/31 08:07:32;;;;;;;9.82;4.40;;;;;;;;;;4968910;28;20026;-71
2022/05/31 08:09:58;;;;;;;4.93;3.92;;;;;;;;;;4984478;28;20214;-70
2022/05/31 08:12:23;;;;;;;7.15;4.55;;;;;;;;;;4968419;28;20037;-70
2022/05/31 08:14:48;;;;;;;8.02;5.15;;;;;;;;;;5004454;28;20108;-70
2022/05/31 08:17:13;;;;;;;6.22;4.13;;;;;;;;;;4984749;28;20100;-70
2022/05/31 08:19:39;;;;;;;11.27;4.60;;;;;;;;;;4988160;28;20026;-71
2022/05/31 08:22:04;;;;;;;6.13;4.00;;;;;;;;;;4969432;28;20025;-70
2022/05/31 08:24:30;;;;;;;6.90;4.05;;;;;;;;;;5004285;28;20018;-71
2022/05/31 08:26:55;;;;;;;4.22;3.80;;;;;;;;;;4985346;28;20044;-69
2022/05/31 08:29:20;;;;;;;5.70;3.53;;;;;;;;;;4986167;28;20066;-70
2022/05/31 08:31:46;;;;;;;5.50;4.13;;;;;;;;;;4972645;28;20108;-71
2022/05/31 08:34:13;;;;;;;6.68;4.22;;;;;;;;;;4985965;28;20424;-71
2022/05/31 08:36:38;;;;;;;7.78;3.92;;;;;;;;;;5004215;28;20113;-70
2022/05/31 08:39:04;;;;;;;5.40;3.65;;;;;;;;;;4980633;28;20097;-71
2022/05/31 08:41:31;;;;;;;5.68;3.50;;;;;;;;;;4987618;28;20456;-71
2022/05/31 08:43:56;;;;;;;5.07;3.03;;;;;;;;;;5005191;28;20072;-70
2022/05/31 08:46:28;;;;;;;6.70;3.63;;;;;;;;;;4986885;28;20042;-71
2022/05/31 08:48:53;;;;;;;4.93;3.00;;;;;;;;;;4985534;28;20248;-70
2022/05/31 08:56:59;;;;;;;5.32;3.10;;;;;;;;;;5002858;28;20520;-70
2022/05/31 08:59:30;;;;;;;5.47;3.05;;;;;;;;;;4999695;28;20279;-71
2022/05/31 09:01:58;;;;;;;6.00;3.58;;;;;;;;;;5001164;28;20037;-70
2022/05/31 09:04:23;;;;;;;3.17;2.88;;;;;;;;;;5002978;28;20705;-71
2022/05/31 09:06:50;;;;;;;5.32;2.78;;;;;;;;;;4986482;28;20503;-72
2022/05/31 09:09:18;;;;;;;3.33;2.97;;;;;;;;;;4978658;28;20038;-71
2022/05/31 09:11:58;;;;;;;6.20;3.45;;;;;;;;;;5004186;28;20105;-71
2022/05/31 09:14:30;;;;;;;6.70;4.05;;;;;;;;;;4985019;28;20428;-71
2022/05/31 09:17:01;;;;;;;5.38;4.25;;;;;;;;;;4985738;28;20088;-71
2022/05/31 09:19:29;;;;;;;5.78;3.20;;;;;;;;;;5001318;28;20271;-72
2022/05/31 09:21:55;;;;;;;6.72;3.70;;;;;;;;;;4982533;28;20022;-71
2022/05/31 09:24:21;;;;;;;4.80;3.58;;;;;;;;;;4980115;28;20510;-70
2022/05/31 09:27:07;;;;;;;5.45;3.85;;;;;;;;;;5000187;28;20120;-70
2022/05/31 09:29:52;;;;;;;7.07;4.15;;;;;;;;;;4984560;28;20463;-71
2022/05/31 09:32:17;;;;;;;6.38;3.78;;;;;;;;;;4998985;28;20105;-71
2022/05/31 09:34:52;;;;;;;5.47;3.60;;;;;;;;;;4984880;28;20393;-70
2022/05/31 09:37:32;;;;;;;5.53;4.18;;;;;;;;;;4996841;28;20212;-70
2022/05/31 09:40:16;;;;;;;5.80;3.53;;;;;;;;;;4983949;28;20177;-71
2022/05/31 09:42:52;;;;;;;8.07;4.15;;;;;;;;;;4985813;28;20065;-72
2022/05/31 09:45:18;;;;;;;5.10;4.63;;;;;;;;;;5000217;28;20117;-71
2022/05/31 09:47:44;;;;;;;5.75;3.30;;;;;;;;;;4985784;28;20092;-70
2022/05/31 09:50:09;;;;;;;8.73;3.38;;;;;;;;;;5001429;28;20050;-71
2022/05/31 09:52:47;;;;;;;7.53;3.10;;;;;;;;;;4984022;28;20163;-71
2022/05/31 09:58:22;;;;;;;4.72;2.60;;;;;;;;;;5003706;28;20060;-71
2022/05/31 10:00:56;;;;;;;5.78;2.20;;;;;;;;;;4989478;28;20044;-71
2022/05/31 10:03:31;;;;;;;3.05;1.80;;;;;;;;;;4983725;28;20018;-69
2022/05/31 10:06:04;;;;;;;5.30;2.60;;;;;;;;;;4984238;28;20030;-68
2022/05/31 10:08:32;;;;;;;4.78;2.50;;;;;;;;;;4994535;28;20365;-69
2022/05/31 10:11:02;;;;;;;4.18;2.47;;;;;;;;;;4999717;28;20385;-70
2022/05/31 10:13:57;;;;;;;5.85;2.40;;;;;;;;;;5000228;28;20511;-70
2022/05/31 10:16:28;;;;;;;5.75;2.15;;;;;;;;;;4980015;28;20048;-70
2022/05/31 10:18:55;;;;;;;6.03;2.30;;;;;;;;;;5003168;28;20057;-70
2022/05/31 10:21:36;;;;;;;5.18;2.33;;;;;;;;;;4979404;28;20028;-69
2022/05/31 10:24:17;;;;;;;4.93;2.42;;;;;;;;;;4996135;28;20492;-69
2022/05/31 10:26:44;;;;;;;6.05;2.40;;;;;;;;;;4998465;28;20106;-70
2022/05/31 10:29:40;;;;;;;6.38;2.20;;;;;;;;;;4982116;28;20044;-69
2022/05/31 10:32:24;;;;;;;4.32;2.33;;;;;;;;;;4985557;28;20192;-70
2022/05/31 10:34:50;;;;;;;4.65;2.72;;;;;;;;;;5001764;28;20555;-70
2022/05/31 10:37:24;;;;;;;6.97;3.13;;;;;;;;;;4996937;28;20287;-69
2022/05/31 10:39:59;;;;;;;4.07;2.92;;;;;;;;;;4998344;28;20079;-70
2022/05/31 10:42:25;;;;;;;3.80;2.83;;;;;;;;;;4980220;28;20461;-70
2022/05/31 10:44:52;;;;;;;5.93;2.40;;;;;;;;;;4983806;28;20033;-70
2022/05/31 10:47:19;;;;;;;4.95;1.83;;;;;;;;;;5000012;28;20025;-70
2022/05/31 10:49:45;;;;;;;6.70;2.95;;;;;;;;;;5000398;28;20026;-70
2022/05/31 10:52:31;;;;;;;6.22;2.42;;;;;;;;;;4996390;28;20302;-70
2022/05/31 10:55:03;;;;;;;6.00;2.63;;;;;;;;;;4995659;28;20071;-69
2022/05/31 10:57:50;;;;;;;37.67;7.70;;;;;;;;;;4979110;28;20486;-70
2022/05/31 11:00:16;;;;;;;11.98;4.53;;;;;;;;;;4998299;28;20239;-69
2022/05/31 11:03:00;;;;;;;12.10;3.60;;;;;;;;;;4981908;28;20022;-70
2022/05/31 11:05:32;;;;;;;7.63;2.90;;;;;;;;;;4992878;28;20022;-69
2022/05/31 11:13:56;;;;;;;7.35;3.42;;;;;;;;;;4998785;28;20898;-69
2022/05/31 11:16:28;;;;;;;4.68;2.72;;;;;;;;;;5000553;28;20113;-69
2022/05/31 11:19:11;;;;;;;7.75;3.15;;;;;;;;;;5004688;28;20021;-70
2022/05/31 11:21:36;;;;;;;6.55;3.28;;;;;;;;;;4999902;28;20072;-70
2022/05/31 11:24:10;;;;;;;5.72;2.92;;;;;;;;;;4998188;28;20452;-70
2022/05/31 11:26:39;;;;;;;4.63;2.90;;;;;;;;;;4981325;28;20061;-69
2022/05/31 11:29:05;;;;;;;5.57;3.00;;;;;;;;;;5003967;28;20072;-71
2022/05/31 11:31:36;;;;;;;8.47;3.63;;;;;;;;;;5001245;28;20030;-69
2022/05/31 11:34:31;;;;;;;7.82;3.60;;;;;;;;;;4985341;28;20260;-69
2022/05/31 11:37:06;;;;;;;5.90;4.55;;;;;;;;;;4971562;28;20506;-67
2022/05/31 11:39:49;;;;;;;7.10;4.30;;;;;;;;;;5001042;28;20132;-69
2022/05/31 11:42:21;;;;;;;5.82;3.90;;;;;;;;;;5005241;28;20053;-70
2022/05/31 11:44:59;;;;;;;5.30;3.90;;;;;;;;;;4988993;28;20022;-69
2022/05/31 11:47:42;;;;;;;6.00;3.97;;;;;;;;;;5006591;28;20127;-69
2022/05/31 11:50:09;;;;;;;6.25;4.10;;;;;;;;;;5006541;28;20022;-71
2022/05/31 11:52:34;;;;;;;4.97;3.30;;;;;;;;;;4985512;28;20118;-70
2022/05/31 11:55:30;;;;;;;6.57;3.33;;;;;;;;;;4986866;28;20112;-68
2022/05/31 11:58:05;;;;;;;6.70;2.75;;;;;;;;;;5007211;28;20260;-70
2022/05/31 12:00:40;;;;;;;6.05;2.88;;;;;;;;;;4986454;28;20108;-71
2022/05/31 12:03:10;;;;;;;7.00;3.30;;;;;;;;;;5006651;28;20018;-70
2022/05/31 12:05:43;;;;;;;8.43;3.30;;;;;;;;;;5004317;28;20021;-70
2022/05/31 12:08:08;;;;;;;;;;;;;;;;;;5003866;28;20108;-70
2022/05/31 12:10:38;;;;;;;5.93;3.67;;;;;;;;;;4979864;28;20066;-70
2022/05/31 12:13:04;;;;;;;6.00;4.25;;;;;;;;;;4986046;28;20418;-69
2022/05/31 12:15:31;;;;;;;6.43;3.83;;;;;;;;;;4983610;28;20018;-70
2022/05/31 12:18:29;;;;;;;7.88;3.58;;;;;;;;;;4985411;28;20057;-69
2022/05/31 12:20:57;;;;;;;5.30;3.42;;;;;;;;;;4958783;28;20044;-70
2022/05/31 12:23:33;;;;;;;6.28;3.00;;;;;;;;;;4983759;28;20029;-70
2022/05/31 12:26:01;;;;;;;4.80;2.67;;;;;;;;;;4981208;28;20381;-69
2022/05/31 12:28:31;;;;;;;5.65;2.53;;;;;;;;;;4984626;28;20072;-68
2022/05/31 12:31:15;;;;;;;7.43;2.63;;;;;;;;;;4985586;28;20064;-70
2022/05/31 12:33:46;;;;;;;3.40;2.60;;;;;;;;;;4982640;28;20049;-71
2022/05/31 12:36:12;;;;;;;3.33;2.42;;;;;;;;;;5001449;28;20029;-70
2022/05/31 12:38:56;;;;;;;4.78;2.55;;;;;;;;;;4983013;28;20104;-70
2022/05/31 12:41:51;;;;;;;4.35;2.40;;;;;;;;;;4998628;28;20037;-71
2022/05/31 12:44:17;;;;;;;6.20;2.88;;;;;;;;;;4975218;28;20101;-70
2022/05/31 12:46:46;;;;;;;3.47;2.60;;;;;;;;;;4983155;28;20267;-70
2022/05/31 12:49:20;;;;;;;4.45;3.25;;;;;;;;;;4985283;28;20227;-68
2022/05/31 12:52:04;;;;;;;5.20;3.65;;;;;;;;;;5000396;28;20802;-69
2022/05/31 12:54:47;;;;;;;4.65;2.90;;;;;;;;;;5000762;28;20125;-70
2022/05/31 13:00:28;;;;;;;7.88;3.40;;;;;;;;;;4991974;28;20032;-70
2022/05/31 13:02:55;;;;;;;3.83;2.80;;;;;;;;;;4982713;28;20065;-70
2022/05/31 13:05:31;;;;;;;4.03;2.90;;;;;;;;;;4984694;28;20345;-70
2022/05/31 13:08:13;;;;;;;5.65;3.05;;;;;;;;;;4985059;28;20096;-70
2022/05/31 13:19:34;;;;;;;4.28;2.78;;;;;;;;;;4981254;28;20022;-70
2022/05/31 13:21:55;;;;;;;6.32;3.53;;;;;;;;;;4999453;28;20091;-70
2022/05/31 13:24:21;;;;;;;5.95;3.40;;;;;;;;;;4985973;28;20345;-70
2022/05/31 13:26:48;;;;;;;4.28;2.83;;;;;;;;;;4996267;28;20029;-70
2022/05/31 13:29:20;;;;;;;3.30;2.60;;;;;;;;;;4968871;28;20065;-70
2022/05/31 13:32:00;;;;;;;5.30;2.60;;;;;;;;;;4983024;28;20101;-70
2022/05/31 13:34:31;;;;;;;5.03;3.28;;;;;;;;;;4986783;28;20092;-70
2022/05/31 13:36:57;;;;;;;6.45;3.50;;;;;;;;;;4978135;28;20022;-71
2022/05/31 13:39:22;;;;;;;7.18;2.72;;;;;;;;;;4986476;28;20018;-72
2022/05/31 13:42:02;;;;;;;4.70;2.88;;;;;;;;;;4996484;28;20029;-69
2022/05/31 13:44:33;;;;;;;5.20;2.80;;;;;;;;;;5005400;28;20033;-70
2022/05/31 13:47:01;;;;;;;3.42;2.55;;;;;;;;;;4980365;28;20053;-70
2022/05/31 13:49:30;;;;;;;2.53;2.15;;;;;;;;;;4987495;28;20057;-69
2022/05/31 13:52:00;;;;;;;4.10;2.60;;;;;;;;;;4980172;28;20049;-69
2022/05/31 13:54:28;;;;;;;5.50;2.47;;;;;;;;;;4986131;28;20024;-70
2022/05/31 13:56:57;;;;;;;7.78;2.60;;;;;;;;;;4976182;28;20524;-69
2022/05/31 13:59:30;;;;;;;6.53;2.70;;;;;;;;;;5005216;28;20029;-69
2022/05/31 14:01:55;;;;;;;4.68;2.15;;;;;;;;;;4981472;28;20160;-70
2022/05/31 14:04:28;;;;;;;4.18;2.28;;;;;;;;;;4986519;28;20528;-69
2022/05/31 14:06:55;;;;;;;;;;;;;;;;;;4996015;28;20194;-70
2022/05/31 14:09:26;;;;;;;4.35;2.33;;;;;;;;;;4986154;28;20368;-72
2022/05/31 14:11:54;;;;;;;4.10;2.10;;;;;;;;;;4994718;28;20038;-69
2022/05/31 14:14:31;;;;;;;6.47;2.80;;;;;;;;;;5002181;28;20147;-70
2022/05/31 14:16:57;;;;;;;4.15;2.67;;;;;;;;;;4978800;28;20320;-69
2022/05/31 14:19:28;;;;;;;7.18;3.47;;;;;;;;;;5002730;28;20114;-70
2022/05/31 14:21:55;;;;;;;5.88;3.38;;;;;;;;;;4996967;28;20520;-71
2022/05/31 14:24:23;;;;;;;4.80;3.08;;;;;;;;;;4985262;28;20029;-69
2022/05/31 14:26:50;;;;;;;4.82;3.00;;;;;;;;;;4998417;28;20471;-69
2022/05/31 14:29:21;;;;;;;4.43;2.45;;;;;;;;;;5003230;28;20390;-69
2022/05/31 14:31:48;;;;;;;4.10;2.55;;;;;;;;;;4980734;28;20026;-69
2022/05/31 14:34:28;;;;;;;6.15;3.05;;;;;;;;;;4985348;28;20029;-70
2022/05/31 14:36:55;;;;;;;4.32;2.60;;;;;;;;;;4997114;28;20022;-67
2022/05/31 14:39:22;;;;;;;7.65;3.55;;;;;;;;;;4983869;28;20048;-69
2022/05/31 14:41:54;;;;;;;5.45;3.00;;;;;;;;;;4978077;28;20104;-69
2022/05/31 14:44:34;;;;;;;5.03;3.10;;;;;;;;;;5001084;28;20499;-70
2022/05/31 14:47:07;;;;;;;6.82;2.70;;;;;;;;;;4975712;28;20042;-69
2022/05/31 14:49:39;;;;;;;7.47;3.50;;;;;;;;;;4983268;28;20066;-70
2022/05/31 14:52:23;;;;;;;3.90;3.30;;;;;;;;;;4977519;28;20473;-69
2022/05/31 14:54:50;;;;;;;8.20;3.35;;;;;;;;;;4980193;28;20099;-69
2022/05/31 14:57:21;;;;;;;7.80;3.50;;;;;;;;;;4976313;28;20087;-71
2022/05/31 14:59:47;;;;;;;5.80;3.10;;;;;;;;;;4979709;28;20088;-69
2022/05/31 15:02:18;;;;;;;6.45;4.15;;;;;;;;;;4979643;28;20427;-68
2022/05/31 15:04:48;;;;;;;7.60;4.20;;;;;;;;;;4982524;28;20114;-68
2022/05/31 15:07:17;;;;;;;9.48;4.32;;;;;;;;;;4978063;28;20426;-70
2022/05/31 15:09:42;;;;;;;9.05;5.10;;;;;;;;;;4943331;28;20057;-71
2022/05/31 15:20:35;;;;;;;5.88;4.95;;;;;;;;;;4981896;28;20080;-72
2022/05/31 15:23:04;;;;;;;8.48;4.47;;;;;;;;;;4962879;28;20250;-65
2022/05/31 15:25:29;;;;;;;7.25;4.30;;;;;;;;;;4970421;28;20064;-64
2022/05/31 15:27:56;;;;;;;7.15;4.00;;;;;;;;;;4946659;28;20109;-64
2022/05/31 15:30:21;;;;;;;7.00;3.50;;;;;;;;;;4970573;28;20088;-65
2022/05/31 15:32:47;;;;;;;5.72;4.47;;;;;;;;;;4963827;28;20022;-64